sensor_id;sensor_type;location;lat;lon;timestamp;P1;durP1;ratioP1;P2;durP2;ratioP2
75744;SDS011;64359;51.366;-0.222;2023-03-01T00:00:03;1.60;;;1.30;;
75744;SDS011;64359;51.366;-0.222;2023-03-01T00:01:10;1.30;;;1.20;;
75744;SDS011;64359;51.366;-0.222;2023-03-01T00:02:16;2.00;;;1.80;;
75744;SDS011;64359;51.366;-0.222;2023-03-01T00:03:21;1.30;;;1.10;;
75744;SDS011;64359;51.366;-0.222;2023-03-01T00:04:26;1.80;;;1.70;;
75744;SDS011;64359;51.366;-0.222;2023-03-01T00:05:30;2.20;;;2.00;;
75744;SDS011;64359;51.366;-0.222;2023-03-01T00:06:34;2.60;;;2.20;;
75744;SDS011;64359;51.366;-0.222;2023-03-01T00:07:39;1.80;;;1.30;;
75744;SDS011;64359;51.366;-0.222;2023-03-01T00:08:43;1.30;;;1.20;;
75744;SDS011;64359;51.366;-0.222;2023-03-01T00:09:47;1.90;;;1.80;;
75744;SDS011;64359;51.366;-0.222;2023-03-01T00:11:00;2.10;;;2.00;;
75744;SDS011;64359;51.366;-0.222;2023-03-01T00:12:06;1.40;;;1.30;;
75744;SDS011;64359;51.366;-0.222;2023-03-01T00:13:11;2.00;;;1.80;;
75744;SDS011;64359;51.366;-0.222;2023-03-01T00:14:15;1.90;;;1.80;;
75744;SDS011;64359;51.366;-0.222;2023-03-01T00:15:20;1.50;;;1.40;;
75744;SDS011;64359;51.366;-0.222;2023-03-01T00:16:25;1.50;;;1.40;;
75744;SDS011;64359;51.366;-0.222;2023-03-01T00:17:30;1.70;;;1.50;;
75744;SDS011;64359;51.366;-0.222;2023-03-01T00:18:35;1.60;;;1.50;;
75744;SDS011;64359;51.366;-0.222;2023-03-01T00:19:39;2.10;;;2.00;;
75744;SDS011;64359;51.366;-0.222;2023-03-01T00:20:50;1.20;;;1.20;;
75744;SDS011;64359;51.366;-0.222;2023-03-01T00:21:54;2.00;;;1.40;;
75744;SDS011;64359;51.366;-0.222;2023-03-01T00:22:58;3.40;;;2.10;;
75744;SDS011;64359;51.366;-0.222;2023-03-01T00:24:03;2.30;;;2.20;;
75744;SDS011;64359;51.366;-0.222;2023-03-01T00:25:08;1.50;;;1.40;;
75744;SDS011;64359;51.366;-0.222;2023-03-01T00:26:13;2.10;;;2.00;;
75744;SDS011;64359;51.366;-0.222;2023-03-01T00:27:18;1.40;;;1.30;;
75744;SDS011;64359;51.366;-0.222;2023-03-01T00:28:23;1.90;;;1.80;;
75744;SDS011;64359;51.366;-0.222;2023-03-01T00:29:27;1.30;;;1.30;;
75744;SDS011;64359;51.366;-0.222;2023-03-01T00:30:32;1.50;;;1.40;;
75744;SDS011;64359;51.366;-0.222;2023-03-01T00:31:37;1.70;;;1.60;;
75744;SDS011;64359;51.366;-0.222;2023-03-01T00:32:41;1.90;;;1.60;;
75744;SDS011;64359;51.366;-0.222;2023-03-01T00:33:45;1.40;;;1.30;;
75744;SDS011;64359;51.366;-0.222;2023-03-01T00:34:50;1.80;;;1.70;;
75744;SDS011;64359;51.366;-0.222;2023-03-01T00:35:57;1.30;;;1.20;;
75744;SDS011;64359;51.366;-0.222;2023-03-01T00:37:02;2.30;;;2.10;;
75744;SDS011;64359;51.366;-0.222;2023-03-01T00:38:07;1.60;;;1.50;;
75744;SDS011;64359;51.366;-0.222;2023-03-01T00:39:13;1.80;;;1.40;;
75744;SDS011;64359;51.366;-0.222;2023-03-01T00:40:18;2.10;;;1.90;;
75744;SDS011;64359;51.366;-0.222;2023-03-01T00:41:22;1.60;;;1.50;;
75744;SDS011;64359;51.366;-0.222;2023-03-01T00:42:28;2.10;;;1.90;;
75744;SDS011;64359;51.366;-0.222;2023-03-01T00:43:32;1.50;;;1.40;;
75744;SDS011;64359;51.366;-0.222;2023-03-01T00:44:37;2.20;;;2.10;;
75744;SDS011;64359;51.366;-0.222;2023-03-01T00:45:42;1.40;;;1.30;;
75744;SDS011;64359;51.366;-0.222;2023-03-01T00:46:46;1.50;;;1.40;;
75744;SDS011;64359;51.366;-0.222;2023-03-01T00:47:51;1.40;;;1.40;;
75744;SDS011;64359;51.366;-0.222;2023-03-01T00:48:55;2.10;;;2.00;;
75744;SDS011;64359;51.366;-0.222;2023-03-01T00:50:00;2.00;;;1.60;;
75744;SDS011;64359;51.366;-0.222;2023-03-01T00:51:08;2.50;;;2.40;;
75744;SDS011;64359;51.366;-0.222;2023-03-01T00:52:13;1.90;;;1.80;;
75744;SDS011;64359;51.366;-0.222;2023-03-01T00:53:18;1.70;;;1.60;;
75744;SDS011;64359;51.366;-0.222;2023-03-01T00:54:22;1.30;;;1.30;;
75744;SDS011;64359;51.366;-0.222;2023-03-01T00:55:26;1.80;;;1.70;;
75744;SDS011;64359;51.366;-0.222;2023-03-01T00:56:31;2.20;;;2.00;;
75744;SDS011;64359;51.366;-0.222;2023-03-01T00:57:35;1.30;;;1.30;;
75744;SDS011;64359;51.366;-0.222;2023-03-01T00:58:40;2.20;;;2.10;;
75744;SDS011;64359;51.366;-0.222;2023-03-01T00:59:45;2.10;;;2.00;;
75744;SDS011;64359;51.366;-0.222;2023-03-01T01:00:49;1.90;;;1.50;;
75744;SDS011;64359;51.366;-0.222;2023-03-01T01:01:54;1.60;;;1.40;;
75744;SDS011;64359;51.366;-0.222;2023-03-01T01:02:58;1.50;;;1.40;;
75744;SDS011;64359;51.366;-0.222;2023-03-01T01:04:03;1.70;;;1.50;;
75744;SDS011;64359;51.366;-0.222;2023-03-01T01:05:09;1.70;;;1.60;;
75744;SDS011;64359;51.366;-0.222;2023-03-01T01:06:15;2.10;;;2.00;;
75744;SDS011;64359;51.366;-0.222;2023-03-01T01:07:21;2.10;;;2.00;;
75744;SDS011;64359;51.366;-0.222;2023-03-01T01:08:25;2.60;;;2.50;;
75744;SDS011;64359;51.366;-0.222;2023-03-01T01:09:30;2.30;;;2.00;;
75744;SDS011;64359;51.366;-0.222;2023-03-01T01:10:34;2.00;;;1.90;;
75744;SDS011;64359;51.366;-0.222;2023-03-01T01:11:39;2.80;;;2.20;;
75744;SDS011;64359;51.366;-0.222;2023-03-01T01:12:43;3.00;;;2.80;;
75744;SDS011;64359;51.366;-0.222;2023-03-01T01:13:48;1.70;;;1.60;;
75744;SDS011;64359;51.366;-0.222;2023-03-01T01:14:53;1.80;;;1.70;;
75744;SDS011;64359;51.366;-0.222;2023-03-01T01:16:01;2.00;;;1.90;;
75744;SDS011;64359;51.366;-0.222;2023-03-01T01:17:06;2.20;;;2.00;;
75744;SDS011;64359;51.366;-0.222;2023-03-01T01:18:10;2.30;;;1.60;;
75744;SDS011;64359;51.366;-0.222;2023-03-01T01:19:14;2.20;;;2.10;;
75744;SDS011;64359;51.366;-0.222;2023-03-01T01:20:19;1.80;;;1.60;;
75744;SDS011;64359;51.366;-0.222;2023-03-01T01:21:24;2.10;;;2.00;;
75744;SDS011;64359;51.366;-0.222;2023-03-01T01:22:29;2.40;;;2.20;;
75744;SDS011;64359;51.366;-0.222;2023-03-01T01:23:33;2.70;;;2.50;;
75744;SDS011;64359;51.366;-0.222;2023-03-01T01:24:37;1.80;;;1.70;;
75744;SDS011;64359;51.366;-0.222;2023-03-01T01:25:42;2.00;;;1.80;;
75744;SDS011;64359;51.366;-0.222;2023-03-01T01:26:46;2.30;;;2.20;;
75744;SDS011;64359;51.366;-0.222;2023-03-01T01:27:51;1.80;;;1.70;;
75744;SDS011;64359;51.366;-0.222;2023-03-01T01:28:55;2.20;;;2.00;;
75744;SDS011;64359;51.366;-0.222;2023-03-01T01:30:00;1.80;;;1.70;;
75744;SDS011;64359;51.366;-0.222;2023-03-01T01:31:05;1.80;;;1.70;;
75744;SDS011;64359;51.366;-0.222;2023-03-01T01:32:09;2.10;;;2.00;;
75744;SDS011;64359;51.366;-0.222;2023-03-01T01:33:13;1.90;;;1.80;;
75744;SDS011;64359;51.366;-0.222;2023-03-01T01:34:19;1.90;;;1.80;;
75744;SDS011;64359;51.366;-0.222;2023-03-01T01:35:24;1.80;;;1.70;;
75744;SDS011;64359;51.366;-0.222;2023-03-01T01:36:28;1.80;;;1.70;;
75744;SDS011;64359;51.366;-0.222;2023-03-01T01:37:33;2.20;;;1.80;;
75744;SDS011;64359;51.366;-0.222;2023-03-01T01:38:37;2.40;;;2.30;;
75744;SDS011;64359;51.366;-0.222;2023-03-01T01:39:43;1.70;;;1.60;;
75744;SDS011;64359;51.366;-0.222;2023-03-01T01:40:48;1.80;;;1.70;;
75744;SDS011;64359;51.366;-0.222;2023-03-01T01:41:53;1.70;;;1.60;;
75744;SDS011;64359;51.366;-0.222;2023-03-01T01:42:57;1.70;;;1.60;;
75744;SDS011;64359;51.366;-0.222;2023-03-01T01:44:12;2.40;;;2.30;;
75744;SDS011;64359;51.366;-0.222;2023-03-01T01:45:30;1.90;;;1.80;;
75744;SDS011;64359;51.366;-0.222;2023-03-01T01:46:37;1.80;;;1.70;;
75744;SDS011;64359;51.366;-0.222;2023-03-01T01:47:43;2.10;;;2.00;;
75744;SDS011;64359;51.366;-0.222;2023-03-01T01:48:51;2.90;;;2.70;;
75744;SDS011;64359;51.366;-0.222;2023-03-01T01:49:59;1.40;;;1.30;;
75744;SDS011;64359;51.366;-0.222;2023-03-01T01:51:04;1.70;;;1.60;;
75744;SDS011;64359;51.366;-0.222;2023-03-01T01:52:11;1.60;;;1.50;;
75744;SDS011;64359;51.366;-0.222;2023-03-01T01:53:22;1.90;;;1.70;;
75744;SDS011;64359;51.366;-0.222;2023-03-01T01:54:28;1.70;;;1.60;;
75744;SDS011;64359;51.366;-0.222;2023-03-01T01:55:36;1.70;;;1.20;;
75744;SDS011;64359;51.366;-0.222;2023-03-01T01:56:48;1.70;;;1.60;;
75744;SDS011;64359;51.366;-0.222;2023-03-01T01:57:58;1.30;;;1.30;;
75744;SDS011;64359;51.366;-0.222;2023-03-01T01:59:05;1.60;;;1.50;;
75744;SDS011;64359;51.366;-0.222;2023-03-01T02:00:11;1.80;;;1.70;;
75744;SDS011;64359;51.366;-0.222;2023-03-01T02:01:19;1.60;;;1.50;;
75744;SDS011;64359;51.366;-0.222;2023-03-01T02:02:23;1.50;;;1.40;;
75744;SDS011;64359;51.366;-0.222;2023-03-01T02:03:29;1.60;;;1.50;;
75744;SDS011;64359;51.366;-0.222;2023-03-01T02:04:38;1.70;;;1.50;;
75744;SDS011;64359;51.366;-0.222;2023-03-01T02:05:45;2.60;;;2.00;;
75744;SDS011;64359;51.366;-0.222;2023-03-01T02:06:55;1.70;;;1.60;;
75744;SDS011;64359;51.366;-0.222;2023-03-01T02:08:04;2.60;;;2.20;;
75744;SDS011;64359;51.366;-0.222;2023-03-01T02:09:12;1.70;;;1.60;;
75744;SDS011;64359;51.366;-0.222;2023-03-01T02:10:18;2.40;;;2.10;;
75744;SDS011;64359;51.366;-0.222;2023-03-01T02:11:23;3.10;;;2.90;;
75744;SDS011;64359;51.366;-0.222;2023-03-01T02:12:29;2.10;;;2.00;;
75744;SDS011;64359;51.366;-0.222;2023-03-01T02:13:34;2.40;;;1.90;;
75744;SDS011;64359;51.366;-0.222;2023-03-01T02:14:39;2.30;;;2.20;;
75744;SDS011;64359;51.366;-0.222;2023-03-01T02:15:44;2.40;;;2.00;;
75744;SDS011;64359;51.366;-0.222;2023-03-01T02:16:48;2.20;;;2.00;;
75744;SDS011;64359;51.366;-0.222;2023-03-01T02:17:53;1.60;;;1.40;;
75744;SDS011;64359;51.366;-0.222;2023-03-01T02:18:58;1.50;;;1.30;;
75744;SDS011;64359;51.366;-0.222;2023-03-01T02:20:07;1.80;;;1.70;;
75744;SDS011;64359;51.366;-0.222;2023-03-01T02:21:25;1.70;;;1.60;;
75744;SDS011;64359;51.366;-0.222;2023-03-01T02:22:39;1.80;;;1.70;;
75744;SDS011;64359;51.366;-0.222;2023-03-01T02:23:45;1.50;;;1.40;;
75744;SDS011;64359;51.366;-0.222;2023-03-01T02:24:52;1.40;;;1.30;;
75744;SDS011;64359;51.366;-0.222;2023-03-01T02:26:05;2.20;;;2.10;;
75744;SDS011;64359;51.366;-0.222;2023-03-01T02:27:15;1.40;;;1.30;;
75744;SDS011;64359;51.366;-0.222;2023-03-01T02:28:32;1.50;;;1.40;;
75744;SDS011;64359;51.366;-0.222;2023-03-01T02:29:38;2.60;;;2.50;;
75744;SDS011;64359;51.366;-0.222;2023-03-01T02:30:46;2.10;;;2.00;;
75744;SDS011;64359;51.366;-0.222;2023-03-01T02:32:10;1.60;;;1.50;;
75744;SDS011;64359;51.366;-0.222;2023-03-01T02:33:16;1.70;;;1.60;;
75744;SDS011;64359;51.366;-0.222;2023-03-01T02:34:22;2.20;;;1.90;;
75744;SDS011;64359;51.366;-0.222;2023-03-01T02:35:27;1.80;;;1.70;;
75744;SDS011;64359;51.366;-0.222;2023-03-01T02:36:36;1.80;;;1.70;;
75744;SDS011;64359;51.366;-0.222;2023-03-01T02:37:42;1.30;;;1.20;;
75744;SDS011;64359;51.366;-0.222;2023-03-01T02:38:47;1.50;;;1.40;;
75744;SDS011;64359;51.366;-0.222;2023-03-01T02:39:53;1.40;;;1.30;;
75744;SDS011;64359;51.366;-0.222;2023-03-01T02:41:01;1.50;;;1.40;;
75744;SDS011;64359;51.366;-0.222;2023-03-01T02:42:07;1.90;;;1.80;;
75744;SDS011;64359;51.366;-0.222;2023-03-01T02:43:15;1.40;;;1.40;;
75744;SDS011;64359;51.366;-0.222;2023-03-01T02:44:21;2.70;;;1.70;;
75744;SDS011;64359;51.366;-0.222;2023-03-01T02:45:26;1.70;;;1.60;;
75744;SDS011;64359;51.366;-0.222;2023-03-01T02:46:31;2.10;;;1.40;;
75744;SDS011;64359;51.366;-0.222;2023-03-01T02:47:35;2.00;;;1.90;;
75744;SDS011;64359;51.366;-0.222;2023-03-01T02:48:40;1.80;;;1.70;;
75744;SDS011;64359;51.366;-0.222;2023-03-01T02:49:47;1.60;;;1.50;;
75744;SDS011;64359;51.366;-0.222;2023-03-01T02:50:55;2.30;;;1.90;;
75744;SDS011;64359;51.366;-0.222;2023-03-01T02:53:48;1.80;;;1.70;;
75744;SDS011;64359;51.366;-0.222;2023-03-01T02:55:03;1.70;;;1.60;;
75744;SDS011;64359;51.366;-0.222;2023-03-01T02:56:10;1.60;;;1.50;;
75744;SDS011;64359;51.366;-0.222;2023-03-01T02:57:16;1.50;;;1.40;;
75744;SDS011;64359;51.366;-0.222;2023-03-01T02:58:21;1.90;;;1.60;;
75744;SDS011;64359;51.366;-0.222;2023-03-01T02:59:27;1.70;;;1.50;;
75744;SDS011;64359;51.366;-0.222;2023-03-01T03:00:37;1.60;;;1.30;;
75744;SDS011;64359;51.366;-0.222;2023-03-01T03:01:48;1.70;;;1.60;;
75744;SDS011;64359;51.366;-0.222;2023-03-01T03:02:53;1.10;;;1.10;;
75744;SDS011;64359;51.366;-0.222;2023-03-01T03:03:59;1.70;;;1.60;;
75744;SDS011;64359;51.366;-0.222;2023-03-01T03:05:05;2.00;;;1.70;;
75744;SDS011;64359;51.366;-0.222;2023-03-01T03:06:14;1.60;;;1.50;;
75744;SDS011;64359;51.366;-0.222;2023-03-01T03:07:19;1.90;;;1.80;;
75744;SDS011;64359;51.366;-0.222;2023-03-01T03:08:23;1.60;;;1.50;;
75744;SDS011;64359;51.366;-0.222;2023-03-01T03:09:28;1.50;;;1.40;;
75744;SDS011;64359;51.366;-0.222;2023-03-01T03:10:33;2.40;;;1.70;;
75744;SDS011;64359;51.366;-0.222;2023-03-01T03:11:39;1.50;;;1.40;;
75744;SDS011;64359;51.366;-0.222;2023-03-01T03:12:44;1.70;;;1.60;;
75744;SDS011;64359;51.366;-0.222;2023-03-01T03:13:51;1.80;;;1.70;;
75744;SDS011;64359;51.366;-0.222;2023-03-01T03:14:55;1.50;;;1.40;;
75744;SDS011;64359;51.366;-0.222;2023-03-01T03:15:59;1.10;;;1.10;;
75744;SDS011;64359;51.366;-0.222;2023-03-01T03:17:06;1.60;;;1.50;;
75744;SDS011;64359;51.366;-0.222;2023-03-01T03:18:12;1.60;;;1.50;;
75744;SDS011;64359;51.366;-0.222;2023-03-01T03:19:18;1.70;;;1.60;;
75744;SDS011;64359;51.366;-0.222;2023-03-01T03:20:24;1.50;;;1.40;;
75744;SDS011;64359;51.366;-0.222;2023-03-01T03:21:29;1.80;;;1.70;;
75744;SDS011;64359;51.366;-0.222;2023-03-01T03:22:34;1.70;;;1.30;;
75744;SDS011;64359;51.366;-0.222;2023-03-01T03:23:39;1.10;;;1.10;;
75744;SDS011;64359;51.366;-0.222;2023-03-01T03:24:43;1.20;;;1.20;;
75744;SDS011;64359;51.366;-0.222;2023-03-01T03:25:49;1.20;;;1.10;;
75744;SDS011;64359;51.366;-0.222;2023-03-01T03:26:54;1.10;;;1.00;;
75744;SDS011;64359;51.366;-0.222;2023-03-01T03:27:58;2.10;;;2.00;;
75744;SDS011;64359;51.366;-0.222;2023-03-01T03:29:02;1.60;;;1.50;;
75744;SDS011;64359;51.366;-0.222;2023-03-01T03:30:07;1.40;;;1.30;;
75744;SDS011;64359;51.366;-0.222;2023-03-01T03:31:15;1.80;;;1.70;;
75744;SDS011;64359;51.366;-0.222;2023-03-01T03:32:19;1.60;;;1.50;;
75744;SDS011;64359;51.366;-0.222;2023-03-01T03:33:23;1.70;;;1.60;;
75744;SDS011;64359;51.366;-0.222;2023-03-01T03:34:28;0.90;;;0.90;;
75744;SDS011;64359;51.366;-0.222;2023-03-01T03:35:33;1.20;;;1.20;;
75744;SDS011;64359;51.366;-0.222;2023-03-01T03:36:42;1.30;;;1.20;;
75744;SDS011;64359;51.366;-0.222;2023-03-01T03:37:47;1.00;;;1.00;;
75744;SDS011;64359;51.366;-0.222;2023-03-01T03:39:07;1.80;;;1.70;;
75744;SDS011;64359;51.366;-0.222;2023-03-01T03:40:12;1.20;;;1.20;;
75744;SDS011;64359;51.366;-0.222;2023-03-01T03:41:17;1.40;;;1.40;;
75744;SDS011;64359;51.366;-0.222;2023-03-01T03:42:21;0.80;;;0.80;;
75744;SDS011;64359;51.366;-0.222;2023-03-01T03:43:26;1.20;;;1.10;;
75744;SDS011;64359;51.366;-0.222;2023-03-01T03:44:30;1.40;;;1.30;;
75744;SDS011;64359;51.366;-0.222;2023-03-01T03:45:35;1.30;;;1.30;;
75744;SDS011;64359;51.366;-0.222;2023-03-01T03:46:40;1.40;;;1.30;;
75744;SDS011;64359;51.366;-0.222;2023-03-01T03:47:44;1.40;;;1.30;;
75744;SDS011;64359;51.366;-0.222;2023-03-01T03:48:48;1.20;;;1.20;;
75744;SDS011;64359;51.366;-0.222;2023-03-01T03:49:53;1.20;;;1.10;;
75744;SDS011;64359;51.366;-0.222;2023-03-01T03:50:57;0.80;;;0.80;;
75744;SDS011;64359;51.366;-0.222;2023-03-01T03:52:01;1.60;;;1.50;;
75744;SDS011;64359;51.366;-0.222;2023-03-01T03:53:07;1.40;;;1.30;;
75744;SDS011;64359;51.366;-0.222;2023-03-01T03:54:13;1.10;;;1.00;;
75744;SDS011;64359;51.366;-0.222;2023-03-01T03:55:18;0.70;;;0.70;;
75744;SDS011;64359;51.366;-0.222;2023-03-01T03:56:22;1.50;;;1.40;;
75744;SDS011;64359;51.366;-0.222;2023-03-01T03:57:27;1.40;;;1.30;;
75744;SDS011;64359;51.366;-0.222;2023-03-01T03:58:31;1.70;;;1.60;;
75744;SDS011;64359;51.366;-0.222;2023-03-01T03:59:36;0.70;;;0.70;;
75744;SDS011;64359;51.366;-0.222;2023-03-01T04:00:41;1.20;;;1.10;;
75744;SDS011;64359;51.366;-0.222;2023-03-01T04:01:46;1.40;;;1.10;;
75744;SDS011;64359;51.366;-0.222;2023-03-01T04:02:51;1.20;;;1.10;;
75744;SDS011;64359;51.366;-0.222;2023-03-01T04:03:57;1.30;;;1.10;;
75744;SDS011;64359;51.366;-0.222;2023-03-01T04:05:06;1.30;;;1.20;;
75744;SDS011;64359;51.366;-0.222;2023-03-01T04:06:12;1.50;;;1.50;;
75744;SDS011;64359;51.366;-0.222;2023-03-01T04:07:17;1.10;;;1.10;;
75744;SDS011;64359;51.366;-0.222;2023-03-01T04:08:21;0.80;;;0.80;;
75744;SDS011;64359;51.366;-0.222;2023-03-01T04:09:26;1.20;;;1.20;;
75744;SDS011;64359;51.366;-0.222;2023-03-01T04:10:33;1.10;;;0.70;;
75744;SDS011;64359;51.366;-0.222;2023-03-01T04:11:38;0.90;;;0.80;;
75744;SDS011;64359;51.366;-0.222;2023-03-01T04:12:43;0.70;;;0.70;;
75744;SDS011;64359;51.366;-0.222;2023-03-01T04:13:47;1.40;;;1.30;;
75744;SDS011;64359;51.366;-0.222;2023-03-01T04:14:52;1.30;;;1.20;;
75744;SDS011;64359;51.366;-0.222;2023-03-01T04:15:57;1.40;;;1.40;;
75744;SDS011;64359;51.366;-0.222;2023-03-01T04:17:01;1.20;;;1.20;;
75744;SDS011;64359;51.366;-0.222;2023-03-01T04:18:06;1.10;;;1.10;;
75744;SDS011;64359;51.366;-0.222;2023-03-01T04:19:12;1.30;;;1.10;;
75744;SDS011;64359;51.366;-0.222;2023-03-01T04:20:17;0.80;;;0.80;;
75744;SDS011;64359;51.366;-0.222;2023-03-01T04:21:26;1.10;;;0.90;;
75744;SDS011;64359;51.366;-0.222;2023-03-01T04:22:30;1.00;;;1.00;;
75744;SDS011;64359;51.366;-0.222;2023-03-01T04:23:35;1.40;;;1.30;;
75744;SDS011;64359;51.366;-0.222;2023-03-01T04:24:40;1.20;;;0.80;;
75744;SDS011;64359;51.366;-0.222;2023-03-01T04:25:46;1.00;;;0.90;;
75744;SDS011;64359;51.366;-0.222;2023-03-01T04:26:55;1.20;;;1.10;;
75744;SDS011;64359;51.366;-0.222;2023-03-01T04:27:59;1.20;;;0.90;;
75744;SDS011;64359;51.366;-0.222;2023-03-01T04:29:03;1.40;;;1.30;;
75744;SDS011;64359;51.366;-0.222;2023-03-01T04:30:09;1.10;;;1.00;;
75744;SDS011;64359;51.366;-0.222;2023-03-01T04:31:15;0.80;;;0.80;;
75744;SDS011;64359;51.366;-0.222;2023-03-01T04:32:22;1.10;;;1.10;;
75744;SDS011;64359;51.366;-0.222;2023-03-01T04:33:27;0.90;;;0.90;;
75744;SDS011;64359;51.366;-0.222;2023-03-01T04:34:31;0.90;;;0.90;;
75744;SDS011;64359;51.366;-0.222;2023-03-01T04:35:35;1.10;;;1.10;;
75744;SDS011;64359;51.366;-0.222;2023-03-01T04:36:41;0.80;;;0.70;;
75744;SDS011;64359;51.366;-0.222;2023-03-01T04:37:46;0.90;;;0.90;;
75744;SDS011;64359;51.366;-0.222;2023-03-01T04:38:50;0.70;;;0.70;;
75744;SDS011;64359;51.366;-0.222;2023-03-01T04:39:55;0.70;;;0.70;;
75744;SDS011;64359;51.366;-0.222;2023-03-01T04:40:59;1.10;;;1.10;;
75744;SDS011;64359;51.366;-0.222;2023-03-01T04:42:04;1.10;;;1.10;;
75744;SDS011;64359;51.366;-0.222;2023-03-01T04:43:09;1.30;;;1.20;;
75744;SDS011;64359;51.366;-0.222;2023-03-01T04:44:15;1.20;;;1.20;;
75744;SDS011;64359;51.366;-0.222;2023-03-01T04:45:20;0.80;;;0.70;;
75744;SDS011;64359;51.366;-0.222;2023-03-01T04:46:25;0.70;;;0.70;;
75744;SDS011;64359;51.366;-0.222;2023-03-01T04:47:29;0.90;;;0.90;;
75744;SDS011;64359;51.366;-0.222;2023-03-01T04:48:34;0.70;;;0.70;;
75744;SDS011;64359;51.366;-0.222;2023-03-01T04:49:39;0.90;;;0.60;;
75744;SDS011;64359;51.366;-0.222;2023-03-01T04:50:43;1.40;;;0.90;;
75744;SDS011;64359;51.366;-0.222;2023-03-01T04:51:48;1.30;;;1.20;;
75744;SDS011;64359;51.366;-0.222;2023-03-01T04:52:52;1.00;;;0.80;;
75744;SDS011;64359;51.366;-0.222;2023-03-01T04:53:59;0.70;;;0.60;;
75744;SDS011;64359;51.366;-0.222;2023-03-01T04:55:05;1.50;;;0.90;;
75744;SDS011;64359;51.366;-0.222;2023-03-01T04:56:10;1.10;;;1.10;;
75744;SDS011;64359;51.366;-0.222;2023-03-01T04:57:16;0.90;;;0.90;;
75744;SDS011;64359;51.366;-0.222;2023-03-01T04:58:20;0.50;;;0.40;;
75744;SDS011;64359;51.366;-0.222;2023-03-01T04:59:25;1.20;;;1.10;;
75744;SDS011;64359;51.366;-0.222;2023-03-01T05:00:30;1.10;;;1.10;;
75744;SDS011;64359;51.366;-0.222;2023-03-01T05:01:34;1.20;;;1.20;;
75744;SDS011;64359;51.366;-0.222;2023-03-01T05:02:39;0.90;;;0.90;;
75744;SDS011;64359;51.366;-0.222;2023-03-01T05:03:45;0.70;;;0.70;;
75744;SDS011;64359;51.366;-0.222;2023-03-01T05:04:50;1.30;;;1.30;;
75744;SDS011;64359;51.366;-0.222;2023-03-01T05:05:58;1.40;;;0.90;;
75744;SDS011;64359;51.366;-0.222;2023-03-01T05:07:03;0.70;;;0.50;;
75744;SDS011;64359;51.366;-0.222;2023-03-01T05:08:07;1.00;;;1.00;;
75744;SDS011;64359;51.366;-0.222;2023-03-01T05:09:18;0.70;;;0.70;;
75744;SDS011;64359;51.366;-0.222;2023-03-01T05:10:23;0.90;;;0.90;;
75744;SDS011;64359;51.366;-0.222;2023-03-01T05:11:30;1.00;;;0.60;;
75744;SDS011;64359;51.366;-0.222;2023-03-01T05:12:37;1.30;;;1.20;;
75744;SDS011;64359;51.366;-0.222;2023-03-01T05:13:41;0.50;;;0.50;;
75744;SDS011;64359;51.366;-0.222;2023-03-01T05:14:45;1.20;;;1.10;;
75744;SDS011;64359;51.366;-0.222;2023-03-01T05:15:54;1.00;;;1.00;;
75744;SDS011;64359;51.366;-0.222;2023-03-01T05:17:01;1.60;;;0.90;;
75744;SDS011;64359;51.366;-0.222;2023-03-01T05:18:06;1.00;;;1.00;;
75744;SDS011;64359;51.366;-0.222;2023-03-01T05:19:12;1.00;;;1.00;;
75744;SDS011;64359;51.366;-0.222;2023-03-01T05:20:17;2.50;;;2.30;;
75744;SDS011;64359;51.366;-0.222;2023-03-01T05:21:24;0.80;;;0.80;;
75744;SDS011;64359;51.366;-0.222;2023-03-01T05:22:29;1.10;;;1.10;;
75744;SDS011;64359;51.366;-0.222;2023-03-01T05:23:33;1.10;;;0.90;;
75744;SDS011;64359;51.366;-0.222;2023-03-01T05:24:38;0.50;;;0.50;;
75744;SDS011;64359;51.366;-0.222;2023-03-01T05:25:43;0.70;;;0.70;;
75744;SDS011;64359;51.366;-0.222;2023-03-01T05:26:47;1.00;;;1.00;;
75744;SDS011;64359;51.366;-0.222;2023-03-01T05:27:53;0.90;;;0.90;;
75744;SDS011;64359;51.366;-0.222;2023-03-01T05:28:57;1.30;;;1.20;;
75744;SDS011;64359;51.366;-0.222;2023-03-01T05:30:02;1.00;;;0.90;;
75744;SDS011;64359;51.366;-0.222;2023-03-01T05:31:14;0.60;;;0.60;;
75744;SDS011;64359;51.366;-0.222;2023-03-01T05:32:19;0.60;;;0.60;;
75744;SDS011;64359;51.366;-0.222;2023-03-01T05:33:23;0.60;;;0.60;;
75744;SDS011;64359;51.366;-0.222;2023-03-01T05:34:29;1.30;;;1.30;;
75744;SDS011;64359;51.366;-0.222;2023-03-01T05:35:35;1.00;;;1.00;;
75744;SDS011;64359;51.366;-0.222;2023-03-01T05:36:39;1.00;;;1.00;;
75744;SDS011;64359;51.366;-0.222;2023-03-01T05:37:44;1.00;;;1.00;;
75744;SDS011;64359;51.366;-0.222;2023-03-01T05:38:50;0.80;;;0.80;;
75744;SDS011;64359;51.366;-0.222;2023-03-01T05:39:54;1.40;;;1.10;;
75744;SDS011;64359;51.366;-0.222;2023-03-01T05:40:59;1.10;;;1.10;;
75744;SDS011;64359;51.366;-0.222;2023-03-01T05:42:03;1.20;;;1.20;;
75744;SDS011;64359;51.366;-0.222;2023-03-01T05:43:10;0.60;;;0.60;;
75744;SDS011;64359;51.366;-0.222;2023-03-01T05:44:15;1.20;;;1.20;;
75744;SDS011;64359;51.366;-0.222;2023-03-01T05:45:20;1.10;;;1.10;;
75744;SDS011;64359;51.366;-0.222;2023-03-01T05:46:25;0.90;;;0.90;;
75744;SDS011;64359;51.366;-0.222;2023-03-01T05:47:30;1.00;;;1.00;;
75744;SDS011;64359;51.366;-0.222;2023-03-01T05:48:35;0.40;;;0.40;;
75744;SDS011;64359;51.366;-0.222;2023-03-01T05:49:40;0.50;;;0.50;;
75744;SDS011;64359;51.366;-0.222;2023-03-01T05:50:45;1.20;;;1.20;;
75744;SDS011;64359;51.366;-0.222;2023-03-01T05:51:50;0.80;;;0.80;;
75744;SDS011;64359;51.366;-0.222;2023-03-01T05:52:58;0.90;;;0.90;;
75744;SDS011;64359;51.366;-0.222;2023-03-01T05:54:04;1.10;;;1.10;;
75744;SDS011;64359;51.366;-0.222;2023-03-01T05:55:09;1.00;;;1.00;;
75744;SDS011;64359;51.366;-0.222;2023-03-01T05:56:13;0.50;;;0.50;;
75744;SDS011;64359;51.366;-0.222;2023-03-01T05:57:18;1.00;;;1.00;;
75744;SDS011;64359;51.366;-0.222;2023-03-01T05:58:22;1.00;;;1.00;;
75744;SDS011;64359;51.366;-0.222;2023-03-01T05:59:27;1.10;;;1.10;;
75744;SDS011;64359;51.366;-0.222;2023-03-01T06:00:31;0.50;;;0.50;;
75744;SDS011;64359;51.366;-0.222;2023-03-01T06:01:36;1.00;;;1.00;;
75744;SDS011;64359;51.366;-0.222;2023-03-01T06:02:42;0.50;;;0.50;;
75744;SDS011;64359;51.366;-0.222;2023-03-01T06:03:46;1.20;;;1.00;;
75744;SDS011;64359;51.366;-0.222;2023-03-01T06:04:51;0.40;;;0.40;;
75744;SDS011;64359;51.366;-0.222;2023-03-01T06:05:56;1.00;;;1.00;;
75744;SDS011;64359;51.366;-0.222;2023-03-01T06:07:01;0.70;;;0.70;;
75744;SDS011;64359;51.366;-0.222;2023-03-01T06:08:05;1.80;;;1.10;;
75744;SDS011;64359;51.366;-0.222;2023-03-01T06:09:11;0.90;;;0.90;;
75744;SDS011;64359;51.366;-0.222;2023-03-01T06:10:16;1.40;;;1.30;;
75744;SDS011;64359;51.366;-0.222;2023-03-01T06:11:22;1.00;;;1.00;;
75744;SDS011;64359;51.366;-0.222;2023-03-01T06:12:27;0.80;;;0.70;;
75744;SDS011;64359;51.366;-0.222;2023-03-01T06:13:34;1.00;;;1.00;;
75744;SDS011;64359;51.366;-0.222;2023-03-01T06:14:38;3.00;;;0.80;;
75744;SDS011;64359;51.366;-0.222;2023-03-01T06:15:42;1.00;;;1.00;;
75744;SDS011;64359;51.366;-0.222;2023-03-01T06:16:47;1.00;;;1.00;;
75744;SDS011;64359;51.366;-0.222;2023-03-01T06:17:52;0.90;;;0.50;;
75744;SDS011;64359;51.366;-0.222;2023-03-01T06:18:58;0.60;;;0.60;;
75744;SDS011;64359;51.366;-0.222;2023-03-01T06:20:03;1.10;;;1.00;;
75744;SDS011;64359;51.366;-0.222;2023-03-01T06:21:10;0.60;;;0.60;;
75744;SDS011;64359;51.366;-0.222;2023-03-01T06:22:15;0.60;;;0.60;;
75744;SDS011;64359;51.366;-0.222;2023-03-01T06:23:19;1.00;;;0.90;;
75744;SDS011;64359;51.366;-0.222;2023-03-01T06:24:24;1.10;;;1.00;;
75744;SDS011;64359;51.366;-0.222;2023-03-01T06:25:30;0.70;;;0.70;;
75744;SDS011;64359;51.366;-0.222;2023-03-01T06:26:34;0.60;;;0.60;;
75744;SDS011;64359;51.366;-0.222;2023-03-01T06:27:39;0.90;;;0.60;;
75744;SDS011;64359;51.366;-0.222;2023-03-01T06:28:44;0.70;;;0.50;;
75744;SDS011;64359;51.366;-0.222;2023-03-01T06:29:48;0.70;;;0.70;;
75744;SDS011;64359;51.366;-0.222;2023-03-01T06:30:53;2.20;;;0.90;;